Time;durP1;ratioP1;P1;durP2;ratioP2;P2;SDS_P1;SDS_P2;PMS_P1;PMS_P2;Temp;Humidity;BMP_temperature;BMP_pressure;BME280_temperature;BME280_humidity;BME280_pressure;Samples;Min_cycle;Max_cycle;Signal;HPM_P1;HPM_P2
2024/01/11 00:01:01;;;;;;;;;;;;;;;;;;5122151;27;19980;-72
2024/01/11 00:03:27;;;;;;;;;;;;;;;;;;5121757;27;20395;-73
2024/01/11 00:05:56;;;;;;;;;;;;;;;;;;5085127;27;19931;-72
2024/01/11 00:08:23;;;;;;;;;;;;;;;;;;5124482;27;20380;-72
2024/01/11 00:10:49;;;;;;;;;;;;;;;;;;5101702;27;20392;-73
2024/01/11 00:13:15;;;;;;;;;;;;;;;;;;5122301;27;20102;-72
2024/01/11 00:15:42;;;;;;;;;;;;;;;;;;5113643;27;19955;-73
2024/01/11 00:18:08;;;;;;;;;;;;;;;;;;5121218;27;19971;-73
2024/01/11 00:20:35;;;;;;;;;;;;;;;;;;5097605;28;19940;-74
2024/01/11 00:23:02;;;;;;;;;;;;;;;;;;5102736;27;19927;-71
2024/01/11 00:25:28;;;;;;;;;;;;;;;;;;5118843;27;19928;-74
2024/01/11 00:27:54;;;;;;;;;;;;;;;;;;5100670;28;20018;-72
2024/01/11 00:30:23;;;;;;;;;;;;;;;;;;5118816;27;20393;-73
2024/01/11 00:32:49;;;;;;;;;;;;;;;;;;5100204;28;19924;-73
2024/01/11 00:35:16;;;;;;;;;;;;;;;;;;5100873;28;19930;-73
2024/01/11 00:37:42;;;;;;;;;;;;;;;;;;5117510;27;19923;-73
2024/01/11 00:40:09;;;;;;;;;;;;;;;;;;5101364;28;20353;-73
2024/01/11 00:42:35;;;;;;;;;;;;;;;;;;5119757;27;20288;-73
2024/01/11 00:45:02;;;;;;;;;;;;;;;;;;5100224;28;20364;-73
2024/01/11 00:47:31;;;;;;;;;;;;;;;;;;5099192;28;20371;-72
2024/01/11 00:49:57;;;;;;;;;;;;;;;;;;5119032;27;19928;-72
2024/01/11 00:52:24;;;;;;;;;;;;;;;;;;5098705;28;19977;-72
2024/01/11 00:54:50;;;;;;;;;;;;;;;;;;5101269;27;19963;-74
2024/01/11 00:57:16;;;;;;;;;;;;;;;;;;5116775;27;20010;-72
2024/01/11 00:59:45;;;;;;;;;;;;;;;;;;5098236;27;19950;-73
2024/01/11 01:02:12;;;;;;;;;;;;;;;;;;5117399;27;19932;-73
2024/01/11 01:04:39;;;;;;;;;;;;;;;;;;5117778;27;19934;-72
2024/01/11 01:07:05;;;;;;;;;;;;;;;;;;5099057;28;19924;-72
2024/01/11 01:09:32;;;;;;;;;;;;;;;;;;5096822;28;19959;-72
2024/01/11 01:11:58;;;;;;;;;;;;;;;;;;5115981;27;19997;-73
2024/01/11 01:14:25;;;;;;;;;;;;;;;;;;5116048;27;19924;-73
2024/01/11 01:16:51;;;;;;;;;;;;;;;;;;5097858;28;19928;-73
2024/01/11 01:19:18;;;;;;;;;;;;;;;;;;5116584;27;20019;-73
2024/01/11 01:21:47;;;;;;;;;;;;;;;;;;5115706;27;20403;-73
2024/01/11 01:24:13;;;;;;;;;;;;;;;;;;5115354;27;19955;-73
2024/01/11 01:26:40;;;;;;;;;;;;;;;;;;5080774;28;19986;-74
2024/01/11 01:29:06;;;;;;;;;;;;;;;;;;5096404;28;20356;-74
2024/01/11 01:31:37;;;;;;;;;;;;;;;;;;5114480;27;19976;-73
2024/01/11 01:34:04;;;;;;;;;;;;;;;;;;5114574;27;19924;-73
2024/01/11 01:36:31;;;;;;;;;;;;;;;;;;5114610;27;19927;-72
2024/01/11 01:38:58;;;;;;;;;;;;;;;;;;5114869;28;20276;-72
2024/01/11 01:41:24;;;;;;;;;;;;;;;;;;5123413;27;19969;-74
2024/01/11 01:43:50;;;;;;;;;;;;;;;;;;5118161;27;19962;-74
2024/01/11 01:46:17;;;;;;;;;;;;;;;;;;5116458;27;19997;-72
2024/01/11 01:48:43;;;;;;;;;;;;;;;;;;5099422;28;20294;-73
2024/01/11 01:51:10;;;;;;;;;;;;;;;;;;5118490;27;19989;-73
2024/01/11 01:53:36;;;;;;;;;;;;;;;;;;5115737;27;19924;-72
2024/01/11 01:56:03;;;;;;;;;;;;;;;;;;5118542;27;19928;-73
2024/01/11 01:58:30;;;;;;;;;;;;;;;;;;5101001;28;19928;-74
2024/01/11 02:00:57;;;;;;;;;;;;;;;;;;5112947;27;20001;-72
2024/01/11 02:03:23;;;;;;;;;;;;;;;;;;5120050;27;19931;-72
2024/01/11 02:05:51;;;;;;;;;;;;;;;;;;5099482;27;20404;-73
2024/01/11 02:08:17;;;;;;;;;;;;;;;;;;5118535;27;19923;-74
2024/01/11 02:10:44;;;;;;;;;;;;;;;;;;5097132;28;19938;-72
2024/01/11 02:13:10;;;;;;;;;;;;;;;;;;5116231;27;20022;-75
2024/01/11 02:15:37;;;;;;;;;;;;;;;;;;5090535;28;20000;-72
2024/01/11 02:18:03;;;;;;;;;;;;;;;;;;5118363;27;19927;-73
2024/01/11 02:20:30;;;;;;;;;;;;;;;;;;5097588;27;20034;-72
2024/01/11 02:22:56;;;;;;;;;;;;;;;;;;5100063;27;20026;-74
2024/01/11 02:25:23;;;;;;;;;;;;;;;;;;5115460;27;19931;-72
2024/01/11 02:27:50;;;;;;;;;;;;;;;;;;5079480;28;19963;-73
2024/01/11 02:30:16;;;;;;;;;;;;;;;;;;5100160;27;20014;-73
2024/01/11 02:32:43;;;;;;;;;;;;;;;;;;5098770;27;20022;-72
2024/01/11 02:35:09;;;;;;;;;;;;;;;;;;5100077;28;19989;-73
2024/01/11 02:37:36;;;;;;;;;;;;;;;;;;5116512;27;19927;-73
2024/01/11 02:40:02;;;;;;;;;;;;;;;;;;5098922;28;19923;-72
2024/01/11 02:42:29;;;;;;;;;;;;;;;;;;5115420;27;19955;-75
2024/01/11 02:44:55;;;;;;;;;;;;;;;;;;5098700;27;19942;-73
2024/01/11 02:47:21;;;;;;;;;;;;;;;;;;5096057;28;20030;-73
2024/01/11 02:49:48;;;;;;;;;;;;;;;;;;5118471;27;19931;-73
2024/01/11 02:52:14;;;;;;;;;;;;;;;;;;5097113;28;19951;-74
2024/01/11 02:54:41;;;;;;;;;;;;;;;;;;5115610;27;19928;-72
2024/01/11 02:57:07;;;;;;;;;;;;;;;;;;5097427;28;20384;-72
2024/01/11 02:59:33;;;;;;;;;;;;;;;;;;5115623;28;20822;-73
2024/01/11 03:02:00;;;;;;;;;;;;;;;;;;5115047;28;19923;-73
2024/01/11 03:04:26;;;;;;;;;;;;;;;;;;5097467;28;20031;-74
2024/01/11 03:06:53;;;;;;;;;;;;;;;;;;5112825;28;19924;-73
2024/01/11 03:09:19;;;;;;;;;;;;;;;;;;5117821;27;19928;-72
2024/01/11 03:11:46;;;;;;;;;;;;;;;;;;5119424;27;20329;-73
2024/01/11 03:14:12;;;;;;;;;;;;;;;;;;5118295;27;20019;-72
2024/01/11 03:16:39;;;;;;;;;;;;;;;;;;5117192;27;19923;-73
2024/01/11 03:19:06;;;;;;;;;;;;;;;;;;5095868;28;19924;-74
2024/01/11 03:21:33;;;;;;;;;;;;;;;;;;5117177;27;20299;-72
2024/01/11 03:23:59;;;;;;;;;;;;;;;;;;5117817;27;20035;-74
2024/01/11 03:26:26;;;;;;;;;;;;;;;;;;5099098;28;20314;-74
2024/01/11 03:28:52;;;;;;;;;;;;;;;;;;5102091;27;20753;-72
2024/01/11 03:31:19;;;;;;;;;;;;;;;;;;5106703;27;19928;-73
2024/01/11 03:33:45;;;;;;;;;;;;;;;;;;5122406;27;19932;-75
2024/01/11 03:36:12;;;;;;;;;;;;;;;;;;5103819;28;19982;-73
2024/01/11 03:38:38;;;;;;;;;;;;;;;;;;5120009;27;19928;-73
2024/01/11 03:41:05;;;;;;;;;;;;;;;;;;5121738;27;19931;-73
2024/01/11 03:43:31;;;;;;;;;;;;;;;;;;5100379;27;19931;-73
2024/01/11 03:45:57;;;;;;;;;;;;;;;;;;5102093;28;19928;-73
2024/01/11 03:48:24;;;;;;;;;;;;;;;;;;5119552;27;19990;-72
2024/01/11 03:50:51;;;;;;;;;;;;;;;;;;5112539;27;19924;-72
2024/01/11 03:53:17;;;;;;;;;;;;;;;;;;5096388;27;20022;-76
2024/01/11 03:55:44;;;;;;;;;;;;;;;;;;5080396;27;19935;-72
2024/01/11 03:58:10;;;;;;;;;;;;;;;;;;5122331;27;20384;-73
2024/01/11 04:00:36;;;;;;;;;;;;;;;;;;5120196;27;20014;-74
2024/01/11 04:03:03;;;;;;;;;;;;;;;;;;5121047;27;19970;-73
2024/01/11 04:05:29;;;;;;;;;;;;;;;;;;5117739;27;20025;-73
2024/01/11 04:07:55;;;;;;;;;;;;;;;;;;5099997;28;19931;-74
2024/01/11 04:10:22;;;;;;;;;;;;;;;;;;5117975;27;20391;-73
2024/01/11 04:12:48;;;;;;;;;;;;;;;;;;5122992;27;20383;-73
2024/01/11 04:15:15;;;;;;;;;;;;;;;;;;5098644;27;19927;-74
2024/01/11 04:17:41;;;;;;;;;;;;;;;;;;5119876;27;20372;-74
2024/01/11 04:20:10;;;;;;;;;;;;;;;;;;5115617;27;19961;-74
2024/01/11 04:22:37;;;;;;;;;;;;;;;;;;5116231;27;19931;-73
2024/01/11 04:25:03;;;;;;;;;;;;;;;;;;5120598;27;20009;-74
2024/01/11 04:27:29;;;;;;;;;;;;;;;;;;5119528;27;20442;-72
2024/01/11 04:29:56;;;;;;;;;;;;;;;;;;5119753;27;20321;-74
2024/01/11 04:32:22;;;;;;;;;;;;;;;;;;5104264;27;20367;-72
2024/01/11 04:34:49;;;;;;;;;;;;;;;;;;5106877;27;19930;-75
2024/01/11 04:37:15;;;;;;;;;;;;;;;;;;5125173;27;19932;-73
2024/01/11 04:39:41;;;;;;;;;;;;;;;;;;5104602;27;19924;-72
2024/01/11 04:42:08;;;;;;;;;;;;;;;;;;5124498;27;19924;-72
2024/01/11 04:44:34;;;;;;;;;;;;;;;;;;5106566;27;19928;-73
2024/01/11 04:47:01;;;;;;;;;;;;;;;;;;5125494;27;19927;-74
2024/01/11 04:49:27;;;;;;;;;;;;;;;;;;5118631;27;19924;-73
2024/01/11 04:51:54;;;;;;;;;;;;;;;;;;5099978;27;19923;-72
2024/01/11 04:54:20;;;;;;;;;;;;;;;;;;5103560;28;19924;-72
2024/01/11 04:56:46;;;;;;;;;;;;;;;;;;5102593;28;19923;-72
2024/01/11 04:59:13;;;;;;;;;;;;;;;;;;5116119;27;19928;-73
2024/01/11 05:01:40;;;;;;;;;;;;;;;;;;5097644;28;19923;-73
2024/01/11 05:04:07;;;;;;;;;;;;;;;;;;5097652;28;20030;-73
2024/01/11 05:06:33;;;;;;;;;;;;;;;;;;5097967;27;19993;-73
2024/01/11 05:09:00;;;;;;;;;;;;;;;;;;5121809;27;19976;-72
2024/01/11 05:11:26;;;;;;;;;;;;;;;;;;5079813;28;19924;-73
2024/01/11 05:13:53;;;;;;;;;;;;;;;;;;5078871;28;19939;-73
2024/01/11 05:16:19;;;;;;;;;;;;;;;;;;5115036;27;20006;-73
2024/01/11 05:18:46;;;;;;;;;;;;;;;;;;5097991;27;19924;-73
2024/01/11 05:21:12;;;;;;;;;;;;;;;;;;5101571;27;19980;-73
2024/01/11 05:23:38;;;;;;;;;;;;;;;;;;5121770;27;19923;-74
2024/01/11 05:26:05;;;;;;;;;;;;;;;;;;5087349;28;19946;-73
2024/01/11 05:28:32;;;;;;;;;;;;;;;;;;5116236;27;19933;-74
2024/01/11 05:30:58;;;;;;;;;;;;;;;;;;5122323;27;19927;-72
2024/01/11 05:33:25;;;;;;;;;;;;;;;;;;5115914;27;19936;-75
2024/01/11 05:35:53;;;;;;;;;;;;;;;;;;5102734;28;19924;-71
2024/01/11 05:38:19;;;;;;;;;;;;;;;;;;5116758;27;20015;-74
2024/01/11 05:40:46;;;;;;;;;;;;;;;;;;5120613;27;19962;-75
2024/01/11 05:43:13;;;;;;;;;;;;;;;;;;5099482;27;20781;-72
2024/01/11 05:45:39;;;;;;;;;;;;;;;;;;5083977;27;19924;-73
2024/01/11 05:48:12;;;;;;;;;;;;;;;;;;5117239;27;19962;-73
2024/01/11 05:50:39;;;;;;;;;;;;;;;;;;5119626;27;20039;-72
2024/01/11 05:53:05;;;;;;;;;;;;;;;;;;5099833;28;19938;-73
2024/01/11 05:55:32;;;;;;;;;;;;;;;;;;5117541;27;19928;-73
2024/01/11 05:57:58;;;;;;;;;;;;;;;;;;5120091;27;19963;-72
2024/01/11 06:00:25;;;;;;;;;;;;;;;;;;5116032;27;19930;-73
2024/01/11 06:02:51;;;;;;;;;;;;;;;;;;5099510;27;20387;-75
2024/01/11 06:05:18;;;;;;;;;;;;;;;;;;5116434;27;19930;-73
2024/01/11 06:07:44;;;;;;;;;;;;;;;;;;5119619;27;19930;-74
2024/01/11 06:10:10;;;;;;;;;;;;;;;;;;5080759;28;19946;-73
2024/01/11 06:12:37;;;;;;;;;;;;;;;;;;5118221;27;19923;-74
2024/01/11 06:15:03;;;;;;;;;;;;;;;;;;5096966;28;19928;-73
2024/01/11 06:17:30;;;;;;;;;;;;;;;;;;5100997;27;19923;-73
2024/01/11 06:19:56;;;;;;;;;;;;;;;;;;5095796;27;20280;-73
2024/01/11 06:22:23;;;;;;;;;;;;;;;;;;5116927;27;19932;-74
2024/01/11 06:24:49;;;;;;;;;;;;;;;;;;5116800;27;19924;-74
2024/01/11 06:27:15;;;;;;;;;;;;;;;;;;5117115;27;19923;-72
2024/01/11 06:29:42;;;;;;;;;;;;;;;;;;5116585;27;20067;-73
2024/01/11 06:32:08;;;;;;;;;;;;;;;;;;5094244;28;19957;-72
2024/01/11 06:34:35;;;;;;;;;;;;;;;;;;5117132;27;20020;-73
2024/01/11 06:37:02;;;;;;;;;;;;;;;;;;5096958;27;19931;-73
2024/01/11 06:39:29;;;;;;;;;;;;;;;;;;5115400;27;19923;-74
2024/01/11 06:41:56;;;;;;;;;;;;;;;;;;5112943;27;20044;-73
2024/01/11 06:44:22;;;;;;;;;;;;;;;;;;5116236;27;19930;-72
2024/01/11 06:46:48;;;;;;;;;;;;;;;;;;5096052;27;19930;-73
2024/01/11 06:49:15;;;;;;;;;;;;;;;;;;5096379;28;20026;-73
2024/01/11 06:51:41;;;;;;;;;;;;;;;;;;5094773;28;19935;-73
2024/01/11 06:54:08;;;;;;;;;;;;;;;;;;5092072;28;20379;-73
2024/01/11 06:56:34;;;;;;;;;;;;;;;;;;5110026;28;19989;-72
2024/01/11 06:59:02;;;;;;;;;;;;;;;;;;5095277;28;19923;-73
2024/01/11 07:01:28;;;;;;;;;;;;;;;;;;5095317;28;20376;-73
2024/01/11 07:03:55;;;;;;;;;;;;;;;;;;5094871;28;20376;-72
2024/01/11 07:06:21;;;;;;;;;;;;;;;;;;5113310;28;19974;-73
2024/01/11 07:08:48;;;;;;;;;;;;;;;;;;5117033;28;19924;-73
2024/01/11 07:11:14;;;;;;;;;;;;;;;;;;5100232;28;19923;-73
2024/01/11 07:13:41;;;;;;;;;;;;;;;;;;5118158;28;19928;-73
2024/01/11 07:16:07;;;;;;;;;;;;;;;;;;5118917;28;19924;-73
2024/01/11 07:18:33;;;;;;;;;;;;;;;;;;5094968;28;19932;-73
2024/01/11 07:21:00;;;;;;;;;;;;;;;;;;5116882;28;19930;-73
2024/01/11 07:23:26;;;;;;;;;;;;;;;;;;5099435;28;19930;-74
2024/01/11 07:25:53;;;;;;;;;;;;;;;;;;5100053;28;19923;-73
2024/01/11 07:28:24;;;;;;;;;;;;;;;;;;5095230;28;20020;-74
2024/01/11 07:30:51;;;;;;;;;;;;;;;;;;5101449;28;19923;-73
2024/01/11 07:33:18;;;;;;;;;;;;;;;;;;5096264;28;19931;-73
2024/01/11 07:35:45;;;;;;;;;;;;;;;;;;5118193;28;19933;-73
2024/01/11 07:38:12;;;;;;;;;;;;;;;;;;5097436;28;20014;-73
2024/01/11 07:40:39;;;;;;;;;;;;;;;;;;5115554;28;20015;-73
2024/01/11 07:43:08;;;;;;;;;;;;;;;;;;5113884;28;19924;-73
2024/01/11 07:45:35;;;;;;;;;;;;;;;;;;5118390;28;19923;-73
2024/01/11 07:48:03;;;;;;;;;;;;;;;;;;5116370;28;19927;-73
2024/01/11 07:50:30;;;;;;;;;;;;;;;;;;5097389;28;20245;-73
2024/01/11 07:52:56;;;;;;;;;;;;;;;;;;5117676;28;19937;-71
2024/01/11 07:55:23;;;;;;;;;;;;;;;;;;5118126;27;20377;-73
2024/01/11 07:57:50;;;;;;;;;;;;;;;;;;5122148;27;19923;-72
2024/01/11 08:00:16;;;;;;;;;;;;;;;;;;5100691;28;19950;-74
2024/01/11 08:02:43;;;;;;;;;;;;;;;;;;5121342;27;19938;-73
2024/01/11 08:05:09;;;;;;;;;;;;;;;;;;5115413;27;20036;-74
2024/01/11 08:07:36;;;;;;;;;;;;;;;;;;5097694;27;20656;-72
2024/01/11 08:10:04;;;;;;;;;;;;;;;;;;5118324;27;20372;-73
2024/01/11 08:12:30;;;;;;;;;;;;;;;;;;5106266;27;20331;-73
2024/01/11 08:14:56;;;;;;;;;;;;;;;;;;5117473;27;19935;-73
2024/01/11 08:17:23;;;;;;;;;;;;;;;;;;5117316;27;19962;-73
2024/01/11 08:19:49;;;;;;;;;;;;;;;;;;5098690;27;19928;-74
2024/01/11 08:22:16;;;;;;;;;;;;;;;;;;5096669;28;19959;-74
2024/01/11 08:24:42;;;;;;;;;;;;;;;;;;5117747;27;20300;-73
2024/01/11 08:27:09;;;;;;;;;;;;;;;;;;5099747;27;19928;-73
2024/01/11 08:29:35;;;;;;;;;;;;;;;;;;5079508;28;19942;-72
2024/01/11 08:32:04;;;;;;;;;;;;;;;;;;5093642;27;20058;-73
2024/01/11 08:34:40;;;;;;;;;;;;;;;;;;5117981;27;19953;-73
2024/01/11 08:37:07;;;;;;;;;;;;;;;;;;5075320;28;19924;-73
2024/01/11 08:39:33;;;;;;;;;;;;;;;;;;5113577;27;19928;-73
2024/01/11 08:42:00;;;;;;;;;;;;;;;;;;5098070;28;19934;-73
2024/01/11 08:44:26;;;;;;;;;;;;;;;;;;5116260;27;19924;-73
2024/01/11 08:46:52;;;;;;;;;;;;;;;;;;5097818;28;19955;-73
2024/01/11 08:49:19;;;;;;;;;;;;;;;;;;5115269;27;20011;-73
2024/01/11 08:51:46;;;;;;;;;;;;;;;;;;5118632;27;19923;-73
2024/01/11 08:54:12;;;;;;;;;;;;;;;;;;5118951;27;19928;-73
2024/01/11 08:56:40;;;;;;;;;;;;;;;;;;5100140;27;19955;-73
2024/01/11 08:59:08;;;;;;;;;;;;;;;;;;5121308;27;19923;-72
2024/01/11 09:01:35;;;;;;;;;;;;;;;;;;5118965;27;19923;-73
2024/01/11 09:04:02;;;;;;;;;;;;;;;;;;5102232;28;19927;-72
2024/01/11 09:06:28;;;;;;;;;;;;;;;;;;5095712;28;19924;-73
2024/01/11 09:08:55;;;;;;;;;;;;;;;;;;5121265;27;20031;-72
2024/01/11 09:11:21;;;;;;;;;;;;;;;;;;5119051;27;19927;-72
2024/01/11 09:13:47;;;;;;;;;;;;;;;;;;5084185;27;20380;-73
2024/01/11 09:16:14;;;;;;;;;;;;;;;;;;5118377;27;19962;-74
2024/01/11 09:18:40;;;;;;;;;;;;;;;;;;5099756;27;20026;-73
2024/01/11 09:21:09;;;;;;;;;;;;;;;;;;5101761;27;19931;-72
2024/01/11 09:23:36;;;;;;;;;;;;;;;;;;5099579;27;20010;-72
2024/01/11 09:26:02;;;;;;;;;;;;;;;;;;5100857;27;19924;-73
2024/01/11 09:28:29;;;;;;;;;;;;;;;;;;5115728;27;19924;-73
2024/01/11 09:30:59;;;;;;;;;;;;;;;;;;5116595;27;20041;-72
2024/01/11 09:33:26;;;;;;;;;;;;;;;;;;5115044;27;19923;-73
2024/01/11 09:35:52;;;;;;;;;;;;;;;;;;5113248;27;19928;-72
2024/01/11 09:38:19;;;;;;;;;;;;;;;;;;5113420;28;19927;-73
2024/01/11 09:40:45;;;;;;;;;;;;;;;;;;5083365;27;20022;-72
2024/01/11 09:43:12;;;;;;;;;;;;;;;;;;5116144;27;20014;-73
2024/01/11 09:45:38;;;;;;;;;;;;;;;;;;5098675;28;19944;-75
2024/01/11 09:48:04;;;;;;;;;;;;;;;;;;5098093;28;20379;-73
2024/01/11 09:50:31;;;;;;;;;;;;;;;;;;5118033;27;19931;-73
2024/01/11 09:52:57;;;;;;;;;;;;;;;;;;5098616;28;20405;-74
2024/01/11 09:55:24;;;;;;;;;;;;;;;;;;5119303;27;19928;-72
2024/01/11 09:57:50;;;;;;;;;;;;;;;;;;5097159;28;20023;-73
2024/01/11 10:00:16;;;;;;;;;;;;;;;;;;5118640;27;20120;-73
2024/01/11 10:02:43;;;;;;;;;;;;;;;;;;5117378;27;19955;-72
2024/01/11 10:05:09;;;;;;;;;;;;;;;;;;5116599;27;20378;-72
2024/01/11 10:07:36;;;;;;;;;;;;;;;;;;5117282;27;19992;-73
2024/01/11 10:10:03;;;;;;;;;;;;;;;;;;5120022;27;19953;-73
2024/01/11 10:12:30;;;;;;;;;;;;;;;;;;5100463;27;20562;-73
2024/01/11 10:14:56;;;;;;;;;;;;;;;;;;5116218;27;19927;-74
2024/01/11 10:17:24;;;;;;;;;;;;;;;;;;5118125;27;20026;-74
2024/01/11 10:19:51;;;;;;;;;;;;;;;;;;5116077;27;19973;-72
2024/01/11 10:22:18;;;;;;;;;;;;;;;;;;5098165;27;20014;-73
2024/01/11 10:24:45;;;;;;;;;;;;;;;;;;5095999;28;19931;-73
2024/01/11 10:27:11;;;;;;;;;;;;;;;;;;5096091;28;20296;-74
2024/01/11 10:29:38;;;;;;;;;;;;;;;;;;5114666;28;20273;-72
2024/01/11 10:32:04;;;;;;;;;;;;;;;;;;5095318;27;20399;-73
2024/01/11 10:34:30;;;;;;;;;;;;;;;;;;5112623;27;19974;-72
2024/01/11 10:36:57;;;;;;;;;;;;;;;;;;5113492;28;19935;-72
2024/01/11 10:39:23;;;;;;;;;;;;;;;;;;5095071;28;20015;-72
2024/01/11 10:41:50;;;;;;;;;;;;;;;;;;5086145;28;20440;-73
2024/01/11 10:44:16;;;;;;;;;;;;;;;;;;5113233;28;19923;-73
2024/01/11 10:46:42;;;;;;;;;;;;;;;;;;5099301;28;19963;-72
2024/01/11 10:49:09;;;;;;;;;;;;;;;;;;5117909;27;20404;-72
2024/01/11 10:51:35;;;;;;;;;;;;;;;;;;5113274;27;19928;-74
2024/01/11 10:54:02;;;;;;;;;;;;;;;;;;5117433;27;19949;-76
2024/01/11 10:56:28;;;;;;;;;;;;;;;;;;5105359;28;19924;-72
2024/01/11 10:58:55;;;;;;;;;;;;;;;;;;5100440;28;20382;-73
2024/01/11 11:01:21;;;;;;;;;;;;;;;;;;5115630;28;20349;-73
2024/01/11 11:03:48;;;;;;;;;;;;;;;;;;5117810;28;20306;-73
2024/01/11 11:06:14;;;;;;;;;;;;;;;;;;5114601;28;19969;-73
2024/01/11 11:08:41;;;;;;;;;;;;;;;;;;5099796;28;19923;-73
2024/01/11 11:11:08;;;;;;;;;;;;;;;;;;5096972;28;19924;-74
2024/01/11 11:13:35;;;;;;;;;;;;;;;;;;5097529;28;19930;-74
2024/01/11 11:16:03;;;;;;;;;;;;;;;;;;5117840;28;19962;-75
2024/01/11 11:18:30;;;;;;;;;;;;;;;;;;5101446;28;20023;-74
2024/01/11 11:20:57;;;;;;;;;;;;;;;;;;5100277;28;20341;-76
2024/01/11 11:23:23;;;;;;;;;;;;;;;;;;5095861;28;19959;-77
2024/01/11 11:25:50;;;;;;;;;;;;;;;;;;5102465;28;19965;-77
2024/01/11 11:28:16;;;;;;;;;;;;;;;;;;5113067;28;19932;-75
2024/01/11 11:30:42;;;;;;;;;;;;;;;;;;5121458;27;19932;-76
2024/01/11 11:33:09;;;;;;;;;;;;;;;;;;5118514;27;19950;-76
2024/01/11 11:35:36;;;;;;;;;;;;;;;;;;5087610;28;19927;-75
2024/01/11 11:38:03;;;;;;;;;;;;;;;;;;5118508;27;19947;-74
2024/01/11 11:40:29;;;;;;;;;;;;;;;;;;5104131;28;20021;-77
2024/01/11 11:42:56;;;;;;;;;;;;;;;;;;5121308;27;20021;-76
2024/01/11 11:45:22;;;;;;;;;;;;;;;;;;5119802;27;20038;-77
2024/01/11 11:47:48;;;;;;;;;;;;;;;;;;5100412;28;19924;-75
2024/01/11 11:50:15;;;;;;;;;;;;;;;;;;5119830;27;20332;-74
2024/01/11 11:52:42;;;;;;;;;;;;;;;;;;5119331;27;19930;-77
2024/01/11 11:55:08;;;;;;;;;;;;;;;;;;5099311;27;19927;-75
2024/01/11 11:57:35;;;;;;;;;;;;;;;;;;5102474;27;19924;-76
2024/01/11 12:00:05;;;;;;;;;;;;;;;;;;5082709;28;20023;-77
2024/01/11 12:02:40;;;;;;;;;;;;;;;;;;5102569;27;19923;-76
2024/01/11 12:05:07;;;;;;;;;;;;;;;;;;5081045;27;19923;-77
2024/01/11 12:07:34;;;;;;;;;;;;;;;;;;5082898;27;19946;-77
2024/01/11 12:10:00;;;;;;;;;;;;;;;;;;5098963;27;19928;-76
2024/01/11 12:12:27;;;;;;;;;;;;;;;;;;5099721;27;20295;-79
2024/01/11 12:14:53;;;;;;;;;;;;;;;;;;5117475;27;20023;-75
2024/01/11 12:17:20;;;;;;;;;;;;;;;;;;5099434;27;20030;-78
2024/01/11 12:19:47;;;;;;;;;;;;;;;;;;5097950;28;20446;-76
2024/01/11 12:22:13;;;;;;;;;;;;;;;;;;5115014;27;19951;-79
2024/01/11 12:24:39;;;;;;;;;;;;;;;;;;5117440;27;19949;-79
2024/01/11 12:27:06;;;;;;;;;;;;;;;;;;5098475;28;20005;-78
2024/01/11 12:29:33;;;;;;;;;;;;;;;;;;5100616;27;19924;-79
2024/01/11 12:32:13;;;;;;;;;;;;;;;;;;5095082;28;19923;-79
2024/01/11 12:34:39;;;;;;;;;;;;;;;;;;5116899;27;19931;-79
2024/01/11 12:37:06;;;;;;;;;;;;;;;;;;5102904;27;19930;-78
2024/01/11 12:39:33;;;;;;;;;;;;;;;;;;5103578;28;19944;-80
2024/01/11 12:41:59;;;;;;;;;;;;;;;;;;5097891;28;19954;-80
2024/01/11 12:44:25;;;;;;;;;;;;;;;;;;5097180;28;19924;-78
2024/01/11 12:46:52;;;;;;;;;;;;;;;;;;5114650;28;20398;-79
2024/01/11 12:49:19;;;;;;;;;;;;;;;;;;5117004;27;19973;-79
2024/01/11 12:51:46;;;;;;;;;;;;;;;;;;5101925;27;19942;-78
2024/01/11 12:54:19;;;;;;;;;;;;;;;;;;5093806;28;19930;-80
2024/01/11 12:56:45;;;;;;;;;;;;;;;;;;5118932;27;19988;-80
2024/01/11 12:59:12;;;;;;;;;;;;;;;;;;5103115;28;19924;-78
2024/01/11 13:01:39;;;;;;;;;;;;;;;;;;5104763;27;20367;-80
2024/01/11 13:04:05;;;;;;;;;;;;;;;;;;5099309;28;19971;-79
2024/01/11 13:06:34;;;;;;;;;;;;;;;;;;5096843;28;19995;-78
2024/01/11 13:09:01;;;;;;;;;;;;;;;;;;5099937;28;20010;-79
2024/01/11 13:11:28;;;;;;;;;;;;;;;;;;5101106;28;20384;-80
2024/01/11 13:13:54;;;;;;;;;;;;;;;;;;5086742;28;19935;-80
2024/01/11 13:16:21;;;;;;;;;;;;;;;;;;5116250;27;20409;-80
2024/01/11 13:18:48;;;;;;;;;;;;;;;;;;5120596;27;20383;-79
2024/01/11 13:21:14;;;;;;;;;;;;;;;;;;5094897;28;20485;-78
2024/01/11 13:23:41;;;;;;;;;;;;;;;;;;5120799;27;19930;-77
2024/01/11 13:26:08;;;;;;;;;;;;;;;;;;5083545;27;19938;-79
2024/01/11 13:28:35;;;;;;;;;;;;;;;;;;5099118;28;19924;-79
2024/01/11 13:31:02;;;;;;;;;;;;;;;;;;5101794;27;19938;-80
2024/01/11 13:33:29;;;;;;;;;;;;;;;;;;5095972;28;19931;-79
2024/01/11 13:35:55;;;;;;;;;;;;;;;;;;5099173;28;19924;-77
2024/01/11 13:38:22;;;;;;;;;;;;;;;;;;5116635;27;20391;-80
2024/01/11 13:40:50;;;;;;;;;;;;;;;;;;5104964;28;19928;-78
2024/01/11 13:43:17;;;;;;;;;;;;;;;;;;5115885;27;19936;-78
2024/01/11 13:45:45;;;;;;;;;;;;;;;;;;5083410;27;20318;-78
2024/01/11 13:48:11;;;;;;;;;;;;;;;;;;5099482;28;19935;-78
2024/01/11 13:50:38;;;;;;;;;;;;;;;;;;5097015;27;19930;-80
2024/01/11 13:53:04;;;;;;;;;;;;;;;;;;5113765;28;20018;-79
2024/01/11 13:55:37;;;;;;;;;;;;;;;;;;5100203;28;19959;-78
2024/01/11 13:58:04;;;;;;;;;;;;;;;;;;5096156;28;19955;-78
2024/01/11 14:00:31;;;;;;;;;;;;;;;;;;5116234;27;20019;-79
2024/01/11 14:02:57;;;;;;;;;;;;;;;;;;5118550;27;19924;-79
2024/01/11 14:05:24;;;;;;;;;;;;;;;;;;5078618;28;19998;-77
2024/01/11 14:07:57;;;;;;;;;;;;;;;;;;5099510;27;19992;-77
2024/01/11 14:10:26;;;;;;;;;;;;;;;;;;5099196;27;20026;-79
2024/01/11 14:12:53;;;;;;;;;;;;;;;;;;5099911;27;19980;-79
2024/01/11 14:15:20;;;;;;;;;;;;;;;;;;5112885;28;19931;-78
2024/01/11 14:17:47;;;;;;;;;;;;;;;;;;5093944;28;20000;-78
2024/01/11 14:20:14;;;;;;;;;;;;;;;;;;5096002;28;20382;-77
2024/01/11 14:22:41;;;;;;;;;;;;;;;;;;5094469;28;19928;-76
2024/01/11 14:25:10;;;;;;;;;;;;;;;;;;5113629;28;20280;-78
2024/01/11 14:27:37;;;;;;;;;;;;;;;;;;5100359;28;20392;-78
2024/01/11 14:30:05;;;;;;;;;;;;;;;;;;5112846;28;20014;-78
2024/01/11 14:32:32;;;;;;;;;;;;;;;;;;5098439;28;20368;-76
2024/01/11 14:35:04;;;;;;;;;;;;;;;;;;5096972;28;20289;-77
2024/01/11 14:37:30;;;;;;;;;;;;;;;;;;5115895;28;19928;-78
2024/01/11 14:39:58;;;;;;;;;;;;;;;;;;5081076;28;19989;-75
2024/01/11 14:42:25;;;;;;;;;;;;;;;;;;5100141;28;19963;-78
2024/01/11 14:44:52;;;;;;;;;;;;;;;;;;5100458;28;19959;-78
2024/01/11 14:47:19;;;;;;;;;;;;;;;;;;5100849;28;20342;-77
2024/01/11 14:49:45;;;;;;;;;;;;;;;;;;5114007;28;19924;-80
2024/01/11 14:52:11;;;;;;;;;;;;;;;;;;5082724;28;19927;-78
2024/01/11 14:54:40;;;;;;;;;;;;;;;;;;5098945;28;20291;-77
2024/01/11 14:57:06;;;;;;;;;;;;;;;;;;5115750;28;20010;-77
2024/01/11 14:59:32;;;;;;;;;;;;;;;;;;5118321;28;19923;-80
2024/01/11 15:01:59;;;;;;;;;;;;;;;;;;5118686;28;20033;-77
2024/01/11 15:04:25;;;;;;;;;;;;;;;;;;5111038;28;19924;-77
2024/01/11 15:06:52;;;;;;;;;;;;;;;;;;5092678;28;19924;-79
2024/01/11 15:09:19;;;;;;;;;;;;;;;;;;5098579;28;19924;-77
2024/01/11 15:11:45;;;;;;;;;;;;;;;;;;5096346;28;20002;-79
2024/01/11 15:14:13;;;;;;;;;;;;;;;;;;5099443;28;20388;-76
2024/01/11 15:16:40;;;;;;;;;;;;;;;;;;5095719;28;20383;-77
2024/01/11 15:19:06;;;;;;;;;;;;;;;;;;5102032;28;19923;-77
2024/01/11 15:21:33;;;;;;;;;;;;;;;;;;5031951;28;1781523;-77
2024/01/11 15:24:02;;;;;;;;;;;;;;;;;;5083253;28;19923;-77
2024/01/11 15:26:28;;;;;;;;;;;;;;;;;;5117834;28;20283;-76
2024/01/11 15:28:54;;;;;;;;;;;;;;;;;;5098919;28;19927;-77
2024/01/11 15:31:21;;;;;;;;;;;;;;;;;;5096454;28;20389;-78
2024/01/11 15:33:48;;;;;;;;;;;;;;;;;;5115172;28;19939;-77
2024/01/11 15:36:14;;;;;;;;;;;;;;;;;;5097107;28;19923;-79
2024/01/11 15:38:41;;;;;;;;;;;;;;;;;;5079496;28;20360;-77
2024/01/11 15:41:07;;;;;;;;;;;;;;;;;;5115619;28;20288;-77
2024/01/11 15:43:34;;;;;;;;;;;;;;;;;;5095397;28;19973;-77
2024/01/11 15:46:00;;;;;;;;;;;;;;;;;;5095679;28;20018;-76
2024/01/11 15:48:27;;;;;;;;;;;;;;;;;;5113933;28;20337;-79
2024/01/11 15:50:57;;;;;;;;;;;;;;;;;;5094765;28;19928;-78
2024/01/11 15:53:23;;;;;;;;;;;;;;;;;;5113856;28;19931;-78
2024/01/11 15:55:50;;;;;;;;;;;;;;;;;;5097265;28;19924;-77
2024/01/11 15:58:17;;;;;;;;;;;;;;;;;;5111293;28;19924;-76
2024/01/11 16:00:43;;;;;;;;;;;;;;;;;;5112276;28;19934;-79
2024/01/11 16:03:10;;;;;;;;;;;;;;;;;;5095007;28;19931;-77
2024/01/11 16:05:36;;;;;;;;;;;;;;;;;;5077911;28;19923;-78
2024/01/11 16:08:05;;;;;;;;;;;;;;;;;;5091680;28;19977;-76
2024/01/11 16:10:32;;;;;;;;;;;;;;;;;;5094716;28;19961;-79
2024/01/11 16:12:58;;;;;;;;;;;;;;;;;;5097186;28;20524;-78
2024/01/11 16:15:25;;;;;;;;;;;;;;;;;;5104099;27;20456;-80
2024/01/11 16:17:52;;;;;;;;;;;;;;;;;;5119937;27;20010;-77
2024/01/11 16:20:19;;;;;;;;;;;;;;;;;;5116137;27;19939;-77
2024/01/11 16:22:45;;;;;;;;;;;;;;;;;;5115952;27;19923;-77
2024/01/11 16:25:11;;;;;;;;;;;;;;;;;;5098505;27;20428;-79
2024/01/11 16:27:38;;;;;;;;;;;;;;;;;;5117871;27;20446;-79
2024/01/11 16:30:04;;;;;;;;;;;;;;;;;;5117908;27;19955;-77
2024/01/11 16:32:32;;;;;;;;;;;;;;;;;;5104807;27;19984;-79
2024/01/11 16:34:59;;;;;;;;;;;;;;;;;;5118199;27;20038;-76
2024/01/11 16:37:26;;;;;;;;;;;;;;;;;;5098018;27;19931;-79
2024/01/11 16:39:53;;;;;;;;;;;;;;;;;;5100337;27;20027;-78
2024/01/11 16:42:20;;;;;;;;;;;;;;;;;;5101655;27;19967;-77